Time;durP1;ratioP1;P1;durP2;ratioP2;P2;SDS_P1;SDS_P2;PMS_P1;PMS_P2;Temp;Humidity;BMP_temperature;BMP_pressure;BME280_temperature;BME280_humidity;BME280_pressure;Samples;Min_cycle;Max_cycle;Signal;HPM_P1;HPM_P2
2020/12/21 00:02:00;;;;;;;8.53;2.73;;;7.20;99.90;;;;;;5096521;28;20016;-66
2020/12/21 00:04:25;;;;;;;9.93;2.67;;;7.20;99.90;;;;;;5096635;28;20214;-66
2020/12/21 00:06:58;;;;;;;9.53;3.27;;;7.20;99.90;;;;;;5097153;28;20031;-66
2020/12/21 00:09:24;;;;;;;7.67;2.67;;;7.20;99.90;;;;;;5096720;28;20028;-66
2020/12/21 00:11:51;;;;;;;7.33;3.07;;;7.20;99.90;;;;;;5096796;28;20026;-66
2020/12/21 00:14:18;;;;;;;12.20;3.80;;;7.20;99.90;;;;;;5095494;28;20036;-67
2020/12/21 00:16:46;;;;;;;7.23;3.00;;;7.20;99.90;;;;;;5096549;28;20027;-66
2020/12/21 00:19:13;;;;;;;15.13;4.90;;;7.30;99.90;;;;;;5095805;28;20027;-66
2020/12/21 00:21:40;;;;;;;13.67;5.40;;;7.30;99.90;;;;;;5096504;28;20081;-66
2020/12/21 00:24:06;;;;;;;13.90;4.30;;;7.30;99.90;;;;;;5096871;28;20024;-67
2020/12/21 00:26:33;;;;;;;13.87;4.23;;;7.30;99.90;;;;;;5096227;28;20023;-66
2020/12/21 00:28:59;;;;;;;12.23;4.43;;;7.30;99.90;;;;;;5096432;28;20054;-67
2020/12/21 00:31:29;;;;;;;9.17;3.13;;;7.40;99.90;;;;;;5095780;28;20031;-67
2020/12/21 00:33:56;;;;;;;9.00;2.20;;;7.40;99.90;;;;;;5096605;28;20024;-66
2020/12/21 00:36:22;;;;;;;9.13;2.57;;;7.40;99.90;;;;;;5095814;28;20024;-66
2020/12/21 00:38:49;;;;;;;8.33;1.90;;;7.50;99.90;;;;;;5096403;28;20035;-66
2020/12/21 00:41:18;;;;;;;11.87;2.97;;;7.50;99.90;;;;;;5096493;28;20016;-66
2020/12/21 00:43:45;;;;;;;9.43;2.27;;;7.50;99.90;;;;;;5094883;28;20380;-66
2020/12/21 00:46:15;;;;;;;12.90;3.00;;;7.60;99.90;;;;;;5096111;28;20112;-66
2020/12/21 00:48:41;;;;;;;9.60;2.50;;;7.60;99.90;;;;;;5096008;28;20130;-66
2020/12/21 00:51:07;;;;;;;15.27;2.63;;;7.60;99.90;;;;;;5096283;28;20398;-66
2020/12/21 00:53:33;;;;;;;12.90;2.53;;;7.60;99.90;;;;;;5095536;28;20423;-66
2020/12/21 00:56:03;;;;;;;8.33;2.00;;;7.60;99.90;;;;;;5096138;28;20077;-66
2020/12/21 00:58:34;;;;;;;7.27;2.67;;;7.60;99.90;;;;;;5094712;28;20159;-66
2020/12/21 01:01:03;;;;;;;11.90;3.90;;;7.60;99.90;;;;;;5096361;28;20020;-66
2020/12/21 01:03:29;;;;;;;8.27;2.47;;;7.60;99.90;;;;;;5094939;28;20027;-66
2020/12/21 01:05:54;;;;;;;13.07;3.13;;;7.50;99.90;;;;;;5095060;28;20028;-66
2020/12/21 01:08:20;;;;;;;9.37;3.23;;;7.50;99.90;;;;;;5096308;28;20028;-66
2020/12/21 01:10:46;;;;;;;7.37;2.50;;;7.50;99.90;;;;;;5096039;28;20032;-67
2020/12/21 01:13:12;;;;;;;6.47;2.23;;;7.50;99.90;;;;;;5095725;28;20482;-67
2020/12/21 01:15:38;;;;;;;9.17;2.60;;;7.50;99.90;;;;;;5095452;28;20099;-67
2020/12/21 01:18:03;;;;;;;8.43;3.17;;;7.60;99.90;;;;;;5094506;28;20122;-67
2020/12/21 01:20:29;;;;;;;9.53;2.43;;;7.60;99.90;;;;;;5094174;28;20418;-68
2020/12/21 01:22:55;;;;;;;9.23;2.60;;;7.60;99.90;;;;;;5094440;28;20021;-68
2020/12/21 01:25:20;;;;;;;11.60;2.90;;;7.60;99.90;;;;;;5095801;28;20157;-68
2020/12/21 01:27:46;;;;;;;9.80;3.30;;;7.50;99.90;;;;;;5094477;28;20137;-68
2020/12/21 01:30:12;;;;;;;8.97;2.40;;;7.60;99.90;;;;;;5094630;28;20032;-68
2020/12/21 01:32:37;;;;;;;10.73;2.50;;;7.60;99.90;;;;;;5095839;28;20152;-68
2020/12/21 01:35:03;;;;;;;12.03;2.67;;;7.60;99.90;;;;;;5095494;28;20388;-68
2020/12/21 01:37:29;;;;;;;14.23;2.50;;;7.60;99.90;;;;;;5095716;28;20051;-69
2020/12/21 01:39:55;;;;;;;8.33;2.57;;;7.60;99.90;;;;;;5094065;28;20075;-68
2020/12/21 01:42:21;;;;;;;10.73;2.93;;;7.60;99.90;;;;;;5094453;28;20059;-68
2020/12/21 01:44:48;;;;;;;7.67;2.53;;;7.70;99.90;;;;;;5094379;28;20470;-69
2020/12/21 01:47:17;;;;;;;17.47;2.90;;;7.60;99.90;;;;;;5095538;28;20036;-68
2020/12/21 01:49:45;;;;;;;10.57;2.20;;;7.70;99.90;;;;;;5095622;28;20316;-68
2020/12/21 01:52:14;;;;;;;11.47;2.57;;;7.70;99.90;;;;;;5095705;28;20024;-68
2020/12/21 01:54:40;;;;;;;7.53;3.00;;;7.70;99.90;;;;;;5096436;28;20295;-68
2020/12/21 01:57:06;;;;;;;7.70;2.73;;;7.80;99.90;;;;;;5098027;28;20039;-67
2020/12/21 01:59:32;;;;;;;10.77;2.10;;;7.80;99.90;;;;;;5099222;28;20071;-67
2020/12/21 02:01:58;;;;;;;11.33;2.63;;;7.80;99.90;;;;;;5099557;28;20028;-67
2020/12/21 02:04:24;;;;;;;10.37;2.63;;;7.80;99.90;;;;;;5099302;28;20438;-67
2020/12/21 02:06:50;;;;;;;7.70;2.00;;;7.90;99.90;;;;;;5099211;28;20028;-68
2020/12/21 02:09:16;;;;;;;7.07;2.43;;;7.90;99.90;;;;;;5099381;28;20525;-67
2020/12/21 02:11:42;;;;;;;10.70;3.73;;;8.00;99.90;;;;;;5097630;28;20114;-68
2020/12/21 02:14:09;;;;;;;8.87;3.00;;;7.90;99.90;;;;;;5098940;28;20067;-68
2020/12/21 02:16:35;;;;;;;12.03;2.70;;;7.90;99.90;;;;;;5099502;28;20426;-68
2020/12/21 02:19:01;;;;;;;8.47;2.10;;;8.00;99.90;;;;;;5098346;28;20316;-68
2020/12/21 02:21:27;;;;;;;5.63;2.10;;;7.90;99.90;;;;;;5097473;28;20027;-67
2020/12/21 02:23:52;;;;;;;10.70;3.43;;;8.00;99.90;;;;;;5097867;28;20025;-66
2020/12/21 02:26:18;;;;;;;8.03;1.80;;;7.90;99.90;;;;;;5097301;28;20020;-66
2020/12/21 02:28:49;;;;;;;10.37;2.93;;;8.00;99.90;;;;;;5080646;28;20070;-66
2020/12/21 02:31:14;;;;;;;8.67;2.50;;;7.90;99.90;;;;;;5096397;28;20140;-67
2020/12/21 02:33:41;;;;;;;12.07;3.30;;;7.90;99.90;;;;;;5098951;28;20033;-67
2020/12/21 02:36:07;;;;;;;9.57;3.27;;;7.90;99.90;;;;;;5098459;28;20098;-66
2020/12/21 02:38:32;;;;;;;11.63;3.47;;;7.90;99.90;;;;;;5099008;28;20428;-65
2020/12/21 02:40:58;;;;;;;10.30;3.13;;;7.90;99.90;;;;;;5098527;28;20032;-65
2020/12/21 02:43:24;;;;;;;6.50;2.70;;;7.90;99.90;;;;;;5098772;28;20055;-65
2020/12/21 02:45:49;;;;;;;8.73;4.17;;;7.90;99.90;;;;;;5098581;28;20081;-65
2020/12/21 02:48:15;;;;;;;9.47;3.87;;;7.90;99.90;;;;;;5098499;28;20292;-65
2020/12/21 02:50:41;;;;;;;16.37;3.37;;;7.90;99.90;;;;;;5098264;28;20426;-65
2020/12/21 02:53:07;;;;;;;11.97;3.80;;;7.90;99.90;;;;;;5096789;28;20120;-65
2020/12/21 02:55:32;;;;;;;13.50;4.13;;;7.90;99.90;;;;;;5080153;28;20391;-65
2020/12/21 02:57:58;;;;;;;6.90;2.97;;;7.90;99.90;;;;;;5096478;28;20032;-64
2020/12/21 03:00:24;;;;;;;9.10;2.13;;;7.90;99.90;;;;;;5097793;28;20036;-66
2020/12/21 03:02:49;;;;;;;9.40;2.90;;;7.90;99.90;;;;;;5096776;28;20177;-65
2020/12/21 03:05:15;;;;;;;14.33;2.40;;;8.00;99.90;;;;;;5062877;28;20028;-65
2020/12/21 03:07:40;;;;;;;9.33;2.40;;;8.00;99.90;;;;;;5096095;28;20024;-65
2020/12/21 03:10:06;;;;;;;14.43;6.13;;;8.00;99.90;;;;;;5098313;28;20028;-65
2020/12/21 03:12:32;;;;;;;12.37;4.03;;;8.10;99.90;;;;;;5097193;28;20032;-65
2020/12/21 03:14:57;;;;;;;5.37;2.20;;;8.10;99.90;;;;;;5096472;28;20346;-65
2020/12/21 03:17:23;;;;;;;5.50;1.63;;;8.10;99.90;;;;;;5097848;28;20347;-65
2020/12/21 03:19:48;;;;;;;5.77;1.83;;;8.10;99.90;;;;;;5097509;28;20422;-65
2020/12/21 03:22:14;;;;;;;6.97;3.20;;;8.10;99.90;;;;;;5097134;28;20020;-65
2020/12/21 03:24:40;;;;;;;8.07;2.13;;;8.20;99.90;;;;;;5096332;28;20115;-65
2020/12/21 03:27:05;;;;;;;6.17;2.40;;;8.10;99.90;;;;;;5097497;28;20035;-65
2020/12/21 03:29:31;;;;;;;5.07;2.97;;;8.10;99.90;;;;;;5097906;28;20365;-65
2020/12/21 03:31:57;;;;;;;8.47;2.57;;;8.20;99.90;;;;;;5096960;28;20434;-65
2020/12/21 03:34:22;;;;;;;4.33;2.03;;;8.20;99.90;;;;;;5096199;28;20028;-64
2020/12/21 03:36:48;;;;;;;8.57;1.73;;;8.20;99.90;;;;;;5097337;28;20115;-65
2020/12/21 03:39:13;;;;;;;4.57;1.20;;;8.20;99.90;;;;;;5097501;28;20445;-65
2020/12/21 03:41:39;;;;;;;4.00;1.57;;;8.30;99.90;;;;;;5097751;28;20024;-68
2020/12/21 03:44:05;;;;;;;3.70;1.73;;;8.20;99.90;;;;;;5095862;28;20027;-67
2020/12/21 03:46:30;;;;;;;6.07;1.43;;;8.30;99.90;;;;;;5097664;28;20035;-67
2020/12/21 03:48:56;;;;;;;6.07;2.37;;;8.30;99.90;;;;;;5096949;28;20362;-68
2020/12/21 03:51:21;;;;;;;4.20;1.43;;;8.30;99.90;;;;;;5096806;28;20024;-67
2020/12/21 03:53:47;;;;;;;4.40;1.70;;;8.30;99.90;;;;;;5096807;28;20039;-67
2020/12/21 03:56:13;;;;;;;5.10;1.17;;;8.40;99.90;;;;;;5097476;28;20081;-65
2020/12/21 03:58:38;;;;;;;4.60;1.03;;;8.40;99.90;;;;;;5097119;28;20331;-65
2020/12/21 04:01:04;;;;;;;6.50;2.03;;;8.50;99.90;;;;;;5096679;28;20034;-65
2020/12/21 04:03:30;;;;;;;6.33;2.30;;;8.50;99.90;;;;;;5097208;28;20024;-66
2020/12/21 04:05:56;;;;;;;3.43;1.20;;;8.60;99.90;;;;;;5096729;28;20020;-67
2020/12/21 04:08:22;;;;;;;5.97;1.30;;;8.60;99.90;;;;;;5097066;28;20077;-67
2020/12/21 04:10:48;;;;;;;9.50;2.07;;;8.60;99.90;;;;;;5096915;28;20295;-67
2020/12/21 04:13:15;;;;;;;5.27;2.07;;;8.70;99.90;;;;;;5096516;28;20020;-66
2020/12/21 04:15:40;;;;;;;3.57;1.10;;;8.70;99.90;;;;;;5097048;28;20024;-66
2020/12/21 04:18:06;;;;;;;3.73;1.10;;;8.70;99.90;;;;;;5096586;28;20092;-66
2020/12/21 04:20:33;;;;;;;5.73;1.37;;;8.70;99.90;;;;;;5095866;28;20028;-67
2020/12/21 04:22:59;;;;;;;4.83;1.33;;;8.80;99.90;;;;;;5096605;28;20024;-67
2020/12/21 04:25:24;;;;;;;7.67;1.10;;;8.80;99.90;;;;;;5096516;28;20431;-67
2020/12/21 04:27:50;;;;;;;3.43;1.30;;;8.80;99.90;;;;;;5096636;28;20027;-67
2020/12/21 04:30:16;;;;;;;7.90;1.90;;;8.80;99.90;;;;;;5096233;28;20429;-67
2020/12/21 04:32:42;;;;;;;6.83;1.27;;;8.80;99.90;;;;;;5096511;28;20034;-67
2020/12/21 04:35:08;;;;;;;3.20;1.23;;;8.90;99.90;;;;;;5094825;28;20119;-67
2020/12/21 04:37:34;;;;;;;3.03;1.00;;;8.80;99.90;;;;;;5096149;28;20020;-68
2020/12/21 04:40:00;;;;;;;3.93;0.83;;;8.90;99.90;;;;;;5095917;28;20030;-68
2020/12/21 04:42:25;;;;;;;2.07;1.00;;;8.90;99.90;;;;;;5096499;28;20035;-67
2020/12/21 04:44:52;;;;;;;3.17;1.10;;;8.90;99.90;;;;;;5094916;28;20479;-68
2020/12/21 04:47:18;;;;;;;6.03;1.00;;;8.90;99.90;;;;;;5096155;28;20079;-68
2020/12/21 04:49:45;;;;;;;2.73;1.30;;;8.90;99.90;;;;;;5096217;28;20111;-68
2020/12/21 04:52:13;;;;;;;2.10;0.87;;;8.90;99.90;;;;;;5094831;28;20124;-68
2020/12/21 04:54:40;;;;;;;1.83;0.80;;;8.90;99.90;;;;;;5096267;28;20052;-69
2020/12/21 04:57:06;;;;;;;7.00;1.40;;;8.90;99.90;;;;;;5095998;28;20488;-68
2020/12/21 04:59:32;;;;;;;4.23;1.13;;;8.90;99.90;;;;;;5095921;28;20039;-69
2020/12/21 05:01:57;;;;;;;3.10;0.80;;;9.00;99.90;;;;;;5077753;28;20020;-69
2020/12/21 05:04:24;;;;;;;2.97;1.10;;;9.00;99.90;;;;;;5077632;28;20020;-69
2020/12/21 05:06:52;;;;;;;1.37;0.77;;;8.90;99.90;;;;;;5095901;28;20020;-69
2020/12/21 05:09:21;;;;;;;4.73;0.90;;;9.00;99.90;;;;;;5095970;28;20024;-69
2020/12/21 05:12:03;;;;;;;3.20;0.80;;;9.00;99.90;;;;;;5096436;28;20024;-69
2020/12/21 05:14:33;;;;;;;2.27;0.87;;;9.00;99.90;;;;;;5095691;28;20338;-69
2020/12/21 05:17:16;;;;;;;5.53;1.93;;;9.00;99.90;;;;;;5096212;28;20067;-69
2020/12/21 05:19:42;;;;;;;3.17;1.10;;;9.00;99.90;;;;;;5093940;28;20028;-69
2020/12/21 05:22:14;;;;;;;8.20;2.53;;;9.00;99.90;;;;;;5096282;28;20028;-68
2020/12/21 05:24:41;;;;;;;6.50;2.80;;;9.10;99.90;;;;;;5076610;28;20146;-69
2020/12/21 05:27:11;;;;;;;3.83;1.50;;;9.10;99.90;;;;;;5095350;28;20019;-69
2020/12/21 05:29:36;;;;;;;6.30;1.40;;;9.10;99.90;;;;;;5096595;28;20020;-69
2020/12/21 05:32:03;;;;;;;6.13;1.27;;;9.10;99.90;;;;;;5098652;28;20089;-69
2020/12/21 05:34:29;;;;;;;6.53;2.03;;;9.10;99.90;;;;;;5099844;28;20028;-69
2020/12/21 05:36:55;;;;;;;5.80;1.67;;;9.20;99.90;;;;;;5099621;28;20028;-69
2020/12/21 05:39:20;;;;;;;3.73;1.03;;;9.20;99.90;;;;;;5098430;28;20473;-70
2020/12/21 05:41:46;;;;;;;7.17;1.97;;;9.20;99.90;;;;;;5099672;28;20111;-70
2020/12/21 05:44:12;;;;;;;1.80;0.90;;;9.20;99.90;;;;;;5100077;28;20024;-70
2020/12/21 05:46:38;;;;;;;3.40;1.10;;;9.20;99.90;;;;;;5097707;28;20024;-69
2020/12/21 05:49:04;;;;;;;7.23;2.97;;;9.30;99.90;;;;;;5099757;28;20058;-69
2020/12/21 05:51:34;;;;;;;3.60;1.03;;;9.20;99.90;;;;;;5097855;28;20073;-69
2020/12/21 05:54:01;;;;;;;2.40;0.90;;;9.30;99.90;;;;;;5096902;28;20047;-70
2020/12/21 05:56:29;;;;;;;4.93;1.50;;;9.30;99.90;;;;;;5098998;28;20043;-70
2020/12/21 05:58:56;;;;;;;6.90;2.20;;;9.30;99.90;;;;;;5099065;28;20485;-70
2020/12/21 06:01:22;;;;;;;3.23;1.40;;;9.30;99.90;;;;;;5099306;28;20107;-70
2020/12/21 06:03:49;;;;;;;5.77;1.47;;;9.30;99.90;;;;;;5099000;28;20024;-70
2020/12/21 06:06:17;;;;;;;3.17;0.63;;;9.30;99.90;;;;;;5099597;28;20065;-70
2020/12/21 06:08:49;;;;;;;5.07;1.10;;;9.30;99.90;;;;;;5099021;28;20026;-70
2020/12/21 06:11:23;;;;;;;3.57;0.97;;;9.40;99.90;;;;;;5099288;28;20035;-70
2020/12/21 06:13:55;;;;;;;2.73;1.30;;;9.40;99.90;;;;;;5098224;28;20497;-70
2020/12/21 06:16:22;;;;;;;2.77;1.00;;;9.40;99.90;;;;;;5099119;28;20128;-70
2020/12/21 06:19:11;;;;;;;1.77;1.00;;;9.40;99.90;;;;;;5098601;28;20078;-70
2020/12/21 06:21:49;;;;;;;3.43;1.10;;;9.40;99.90;;;;;;5099251;28;20024;-70
2020/12/21 06:24:20;;;;;;;2.80;0.87;;;9.50;99.90;;;;;;5098932;28;20061;-70
2020/12/21 06:26:46;;;;;;;2.13;0.50;;;9.50;99.90;;;;;;5098960;28;20024;-70
2020/12/21 06:29:16;;;;;;;2.33;1.10;;;9.60;99.90;;;;;;5099087;28;20069;-70
2020/12/21 06:31:46;;;;;;;3.77;1.13;;;9.60;99.90;;;;;;5098961;28;20468;-70
2020/12/21 06:34:16;;;;;;;2.67;0.80;;;9.60;99.90;;;;;;5098677;28;20139;-70
2020/12/21 06:36:43;;;;;;;2.97;1.27;;;9.60;99.90;;;;;;5097660;28;20438;-70
2020/12/21 06:39:20;;;;;;;2.50;0.50;;;9.60;99.90;;;;;;5097345;28;20032;-70
2020/12/21 06:41:46;;;;;;;3.23;0.70;;;9.70;99.90;;;;;;5095924;28;20194;-70
2020/12/21 06:44:28;;;;;;;1.00;0.37;;;9.70;99.90;;;;;;5098569;28;20316;-70
2020/12/21 06:46:54;;;;;;;1.57;0.50;;;9.80;99.90;;;;;;5097632;28;20020;-70
2020/12/21 06:49:20;;;;;;;3.23;1.30;;;9.80;99.90;;;;;;5098434;28;20564;-70
2020/12/21 06:51:47;;;;;;;1.00;0.40;;;9.80;99.90;;;;;;5098417;28;20028;-70
2020/12/21 06:54:13;;;;;;;2.77;1.00;;;9.80;99.90;;;;;;5098774;28;20338;-70
2020/12/21 06:56:44;;;;;;;1.13;0.37;;;9.80;99.90;;;;;;5097829;28;20028;-70
2020/12/21 06:59:12;;;;;;;1.10;0.40;;;9.90;99.90;;;;;;5097206;28;20060;-71
2020/12/21 07:01:40;;;;;;;1.00;0.37;;;10.00;99.90;;;;;;5096194;28;20377;-70
2020/12/21 07:04:10;;;;;;;2.53;1.00;;;9.90;99.90;;;;;;5098264;28;20422;-70
2020/12/21 07:06:40;;;;;;;2.90;0.77;;;10.00;99.90;;;;;;5098009;28;20099;-70
2020/12/21 07:09:06;;;;;;;3.37;0.80;;;10.00;99.90;;;;;;5098830;28;20028;-70
2020/12/21 07:11:32;;;;;;;1.73;0.50;;;10.00;99.90;;;;;;5098412;28;20048;-70
2020/12/21 07:13:58;;;;;;;1.43;0.43;;;10.10;99.90;;;;;;5098099;28;20426;-70
2020/12/21 07:16:24;;;;;;;2.17;0.90;;;10.10;99.90;;;;;;5097759;28;20024;-70
2020/12/21 07:18:50;;;;;;;2.47;0.77;;;10.10;99.90;;;;;;5095931;28;20315;-70
2020/12/21 07:21:16;;;;;;;1.60;0.77;;;10.10;99.90;;;;;;5079784;28;20027;-70
2020/12/21 07:23:43;;;;;;;1.60;0.60;;;10.10;99.90;;;;;;5096326;28;20027;-70
2020/12/21 07:26:11;;;;;;;2.63;0.70;;;10.20;99.90;;;;;;5097654;28;20035;-70
2020/12/21 07:28:37;;;;;;;2.73;1.00;;;10.20;99.90;;;;;;5096764;28;20024;-70
2020/12/21 07:31:14;;;;;;;3.07;1.10;;;10.20;99.90;;;;;;5097334;28;20339;-70
2020/12/21 07:33:57;;;;;;;2.03;1.30;;;10.30;99.90;;;;;;5097303;28;20039;-70
2020/12/21 07:36:28;;;;;;;2.20;0.80;;;10.20;99.90;;;;;;5097894;28;20303;-70
2020/12/21 07:39:26;;;;;;;2.00;1.23;;;10.20;99.90;;;;;;5097563;28;20020;-71
2020/12/21 07:41:54;;;;;;;2.87;1.20;;;10.30;99.90;;;;;;5052855;28;20039;-69
2020/12/21 07:44:33;;;;;;;7.63;2.40;;;10.30;99.90;;;;;;5095763;28;20016;-69
2020/12/21 07:47:02;;;;;;;6.43;2.27;;;10.30;99.90;;;;;;5096100;28;20447;-70
2020/12/21 07:49:31;;;;;;;4.63;1.97;;;10.20;99.90;;;;;;5096918;28;20031;-69
2020/12/21 07:51:59;;;;;;;4.17;1.43;;;10.20;99.90;;;;;;5096791;28;20338;-71
2020/12/21 07:54:32;;;;;;;3.30;1.00;;;10.20;99.90;;;;;;5096652;28;20082;-69
2020/12/21 07:57:02;;;;;;;2.08;1.05;;;10.20;99.90;;;;;;5097301;28;20028;-69
2020/12/21 07:59:27;;;;;;;4.30;2.37;;;10.30;99.90;;;;;;5096629;28;20418;-70
2020/12/21 08:01:58;;;;;;;3.37;1.90;;;10.30;99.90;;;;;;5096674;28;20027;-70
2020/12/21 08:04:24;;;;;;;4.90;2.70;;;10.30;99.90;;;;;;5095891;28;20026;-71
2020/12/21 08:06:49;;;;;;;3.97;1.77;;;10.30;99.90;;;;;;5097201;28;20020;-70
2020/12/21 08:09:15;;;;;;;3.00;1.30;;;10.40;99.90;;;;;;5095900;28;20028;-71
2020/12/21 08:11:41;;;;;;;2.60;1.23;;;10.50;99.90;;;;;;5095779;28;20032;-71
2020/12/21 08:14:13;;;;;;;2.70;1.30;;;10.50;99.90;;;;;;5096938;28;20426;-71
2020/12/21 08:16:39;;;;;;;2.33;1.13;;;10.60;99.90;;;;;;5095412;28;20027;-70
2020/12/21 08:19:13;;;;;;;1.97;1.30;;;10.60;99.90;;;;;;5096663;28;20028;-71
2020/12/21 08:21:39;;;;;;;3.47;1.73;;;10.70;99.90;;;;;;5096863;28;20043;-70
2020/12/21 08:24:05;;;;;;;3.30;1.63;;;10.70;99.90;;;;;;5100776;28;20335;-70
2020/12/21 08:26:37;;;;;;;3.97;1.77;;;10.80;99.90;;;;;;5104159;28;20498;-70
2020/12/21 08:29:04;;;;;;;4.57;2.07;;;10.90;99.90;;;;;;5105830;28;20304;-70
2020/12/21 08:31:30;;;;;;;4.33;2.17;;;10.90;99.90;;;;;;5103269;28;20496;-69
2020/12/21 08:34:02;;;;;;;3.27;1.90;;;11.00;99.90;;;;;;5096466;28;20039;-69
2020/12/21 08:36:36;;;;;;;4.93;2.70;;;11.00;99.90;;;;;;5096869;28;20031;-70
2020/12/21 08:39:18;;;;;;;5.90;2.33;;;11.10;99.90;;;;;;5096324;28;20119;-69
2020/12/21 08:41:45;;;;;;;3.63;1.80;;;11.20;99.90;;;;;;5097182;28;20024;-69
2020/12/21 08:44:22;;;;;;;7.60;3.47;;;11.20;99.90;;;;;;5096760;28;20051;-69
2020/12/21 08:46:52;;;;;;;4.33;2.47;;;11.20;99.90;;;;;;5095636;28;20024;-69
2020/12/21 08:49:19;;;;;;;6.77;3.13;;;11.20;99.90;;;;;;5096494;28;20079;-68
2020/12/21 08:51:45;;;;;;;5.47;2.17;;;11.20;99.90;;;;;;5094852;28;20450;-69
2020/12/21 08:54:11;;;;;;;4.80;2.30;;;11.30;99.90;;;;;;5095515;28;20042;-69
2020/12/21 08:56:36;;;;;;;5.33;2.00;;;11.30;99.90;;;;;;5096856;28;20118;-69
2020/12/21 08:59:02;;;;;;;4.43;1.93;;;11.40;99.90;;;;;;5096255;28;20334;-69
2020/12/21 09:01:28;;;;;;;4.30;2.53;;;11.40;99.90;;;;;;5094235;28;20123;-68
2020/12/21 09:03:53;;;;;;;4.43;1.80;;;11.40;99.90;;;;;;5093108;28;20131;-68
2020/12/21 09:06:20;;;;;;;2.87;1.20;;;11.40;99.90;;;;;;5095741;28;20028;-69
2020/12/21 09:08:46;;;;;;;3.47;1.27;;;11.60;99.90;;;;;;5090368;28;20123;-69
2020/12/21 09:11:16;;;;;;;2.73;1.57;;;11.60;99.90;;;;;;5094822;28;20024;-68
2020/12/21 09:13:42;;;;;;;2.13;1.00;;;11.60;99.90;;;;;;5096238;28;20024;-69
2020/12/21 09:16:08;;;;;;;4.90;1.90;;;11.60;99.90;;;;;;5095760;28;20032;-68
2020/12/21 09:18:34;;;;;;;4.23;2.37;;;11.60;99.90;;;;;;5094747;28;20028;-69
2020/12/21 09:20:59;;;;;;;3.23;1.30;;;11.70;99.90;;;;;;5096269;28;20028;-69
2020/12/21 09:23:25;;;;;;;2.63;0.93;;;11.80;99.90;;;;;;5095722;28;20035;-68
2020/12/21 09:25:51;;;;;;;3.27;1.73;;;11.80;99.90;;;;;;5101685;28;20051;-66
2020/12/21 09:28:16;;;;;;;3.03;1.00;;;11.80;99.90;;;;;;5097420;28;20127;-68
2020/12/21 09:30:42;;;;;;;3.67;1.23;;;11.80;99.90;;;;;;5094889;28;20036;-68
2020/12/21 09:33:08;;;;;;;2.00;0.90;;;11.80;99.90;;;;;;5096060;28;20051;-69
2020/12/21 09:35:33;;;;;;;2.50;0.90;;;11.80;99.90;;;;;;5094719;28;20040;-69
2020/12/21 09:38:00;;;;;;;2.27;1.03;;;11.90;99.90;;;;;;5095624;28;20355;-71
2020/12/21 09:40:25;;;;;;;1.50;0.90;;;11.90;99.90;;;;;;5076900;28;20465;-68
2020/12/21 09:42:51;;;;;;;3.87;0.83;;;12.00;99.90;;;;;;5094884;28;20035;-69
2020/12/21 09:45:17;;;;;;;4.40;1.83;;;12.10;99.90;;;;;;5087732;28;20035;-74
2020/12/21 09:47:44;;;;;;;1.43;0.70;;;12.10;99.90;;;;;;5096309;28;20040;-72
2020/12/21 09:50:10;;;;;;;2.23;0.70;;;12.20;99.90;;;;;;5095591;28;20494;-72
2020/12/21 09:52:35;;;;;;;2.43;1.20;;;12.20;99.90;;;;;;5083744;28;20063;-70
2020/12/21 09:55:01;;;;;;;3.03;1.23;;;12.30;99.90;;;;;;5074627;28;20063;-70
2020/12/21 09:57:27;;;;;;;1.40;0.80;;;12.30;99.90;;;;;;5094307;28;20047;-70
2020/12/21 09:59:52;;;;;;;2.07;0.70;;;12.20;99.90;;;;;;5093939;28;20036;-70
2020/12/21 10:02:18;;;;;;;3.30;1.27;;;12.30;99.90;;;;;;5094207;28;20031;-73
2020/12/21 10:04:44;;;;;;;2.13;0.60;;;12.30;99.90;;;;;;5094096;28;20430;-76
2020/12/21 10:07:09;;;;;;;1.07;0.47;;;12.30;99.90;;;;;;5093978;28;20127;-76
2020/12/21 10:09:35;;;;;;;3.00;1.10;;;12.40;99.90;;;;;;5095509;28;20554;-75
2020/12/21 10:12:00;;;;;;;1.27;0.67;;;12.50;99.90;;;;;;5095101;28;20443;-71
2020/12/21 10:14:26;;;;;;;1.27;0.60;;;12.50;99.90;;;;;;5094777;28;20040;-70
2020/12/21 10:16:53;;;;;;;1.00;0.50;;;12.50;99.90;;;;;;5096850;28;20119;-74
2020/12/21 10:19:19;;;;;;;1.77;0.60;;;12.50;99.90;;;;;;5097929;28;20063;-74
2020/12/21 10:21:45;;;;;;;1.40;0.73;;;12.50;99.90;;;;;;5097537;28;20066;-75
2020/12/21 10:24:10;;;;;;;1.10;0.80;;;12.60;99.90;;;;;;5097585;28;20028;-74
2020/12/21 10:26:40;;;;;;;1.47;0.70;;;12.60;99.90;;;;;;5098950;28;20405;-74
2020/12/21 10:29:06;;;;;;;1.73;0.60;;;12.60;99.90;;;;;;5097655;28;20330;-73
2020/12/21 10:31:31;;;;;;;2.07;0.67;;;12.70;99.90;;;;;;5098419;28;20032;-75
2020/12/21 10:33:57;;;;;;;2.90;0.77;;;12.60;99.90;;;;;;5098873;28;20127;-74
2020/12/21 10:36:23;;;;;;;1.73;0.60;;;12.60;99.90;;;;;;5097951;28;20387;-71
2020/12/21 10:38:49;;;;;;;2.07;0.60;;;12.50;99.90;;;;;;5097846;28;20034;-74
2020/12/21 10:41:16;;;;;;;1.20;0.50;;;12.50;99.90;;;;;;5097442;28;20039;-74
2020/12/21 10:43:42;;;;;;;4.03;0.57;;;12.50;99.90;;;;;;5097516;28;20020;-74
2020/12/21 10:46:08;;;;;;;1.50;0.70;;;12.50;99.90;;;;;;5097532;28;20093;-74
2020/12/21 10:48:34;;;;;;;2.73;0.70;;;12.50;99.90;;;;;;5097316;28;20458;-74
2020/12/21 10:51:00;;;;;;;1.50;0.83;;;12.50;99.90;;;;;;5080828;28;20035;-75
2020/12/21 10:53:25;;;;;;;5.90;1.00;;;12.60;99.90;;;;;;5099030;28;20028;-74
2020/12/21 10:55:51;;;;;;;1.37;0.70;;;12.60;99.90;;;;;;5097547;28;20020;-76
2020/12/21 10:58:17;;;;;;;1.73;1.00;;;12.50;99.90;;;;;;5097375;28;20499;-75
2020/12/21 11:00:42;;;;;;;1.73;1.10;;;12.50;99.90;;;;;;5097118;28;20039;-75
2020/12/21 11:03:08;;;;;;;2.60;1.30;;;12.50;99.90;;;;;;5098373;28;20031;-77
2020/12/21 11:05:34;;;;;;;3.80;1.57;;;12.60;99.90;;;;;;5096290;28;20031;-75
2020/12/21 11:07:59;;;;;;;3.47;1.80;;;12.60;99.90;;;;;;5089891;28;20058;-76
2020/12/21 11:10:26;;;;;;;2.90;1.60;;;12.60;99.90;;;;;;5086732;28;20064;-75
2020/12/21 11:12:51;;;;;;;6.77;4.30;;;12.60;99.90;;;;;;5096622;28;20031;-75
2020/12/21 11:15:17;;;;;;;3.23;1.17;;;12.60;99.90;;;;;;5096640;28;20024;-76
2020/12/21 11:17:43;;;;;;;6.57;4.20;;;12.70;99.90;;;;;;5080432;28;20024;-76
2020/12/21 11:20:08;;;;;;;3.30;1.83;;;12.70;99.90;;;;;;5096303;28;20020;-78
2020/12/21 11:22:35;;;;;;;5.43;3.03;;;12.60;99.90;;;;;;5078701;28;20031;-77
2020/12/21 11:25:01;;;;;;;5.17;3.23;;;12.60;99.90;;;;;;5096408;28;20036;-76
2020/12/21 11:27:27;;;;;;;2.30;1.07;;;12.70;99.90;;;;;;5079217;28;20028;-73
2020/12/21 11:29:53;;;;;;;5.43;1.20;;;12.70;99.90;;;;;;5097557;28;20433;-72
2020/12/21 11:32:18;;;;;;;2.27;1.30;;;12.70;99.90;;;;;;5087373;28;20028;-73
2020/12/21 11:34:44;;;;;;;3.33;1.40;;;12.70;99.90;;;;;;5096090;28;20030;-73
2020/12/21 11:37:10;;;;;;;1.90;0.90;;;12.60;99.90;;;;;;5096610;28;20028;-73
2020/12/21 11:39:35;;;;;;;3.80;1.57;;;12.60;99.90;;;;;;5097115;28;20044;-73
2020/12/21 11:42:01;;;;;;;2.37;1.20;;;12.70;99.90;;;;;;5097413;28;20107;-73
2020/12/21 11:44:28;;;;;;;2.53;0.97;;;12.70;99.90;;;;;;5079568;28;20052;-73
2020/12/21 11:46:53;;;;;;;3.27;1.37;;;12.70;99.90;;;;;;5097247;28;20392;-72
2020/12/21 11:49:19;;;;;;;2.33;1.63;;;12.70;99.90;;;;;;5095871;28;20040;-72
2020/12/21 11:51:44;;;;;;;5.20;2.70;;;12.70;99.90;;;;;;5096918;28;20028;-73
2020/12/21 11:54:10;;;;;;;3.03;1.17;;;12.70;99.90;;;;;;5096143;28;20028;-73
2020/12/21 11:56:36;;;;;;;1.87;1.00;;;12.70;99.90;;;;;;5095707;28;20024;-72
2020/12/21 11:59:01;;;;;;;13.37;8.43;;;12.70;99.90;;;;;;5096583;28;20032;-73
2020/12/21 12:01:27;;;;;;;2.43;0.70;;;12.80;99.90;;;;;;5095601;28;20020;-72
2020/12/21 12:03:53;;;;;;;2.53;1.60;;;12.90;99.90;;;;;;5077473;28;20475;-72
2020/12/21 12:06:27;;;;;;;2.97;0.90;;;13.00;99.90;;;;;;5081199;28;20324;-71
2020/12/21 12:08:53;;;;;;;6.83;3.47;;;13.00;99.90;;;;;;5095106;28;20023;-71
2020/12/21 12:11:25;;;;;;;2.87;1.20;;;13.10;99.90;;;;;;5093261;28;20028;-69
2020/12/21 12:13:51;;;;;;;3.60;2.73;;;13.10;99.90;;;;;;5095453;28;20020;-70
2020/12/21 12:16:21;;;;;;;3.07;1.40;;;13.10;99.90;;;;;;5078486;28;20283;-69
2020/12/21 12:18:46;;;;;;;11.00;1.27;;;13.00;99.90;;;;;;5096303;28;20070;-69
2020/12/21 12:21:19;;;;;;;2.57;0.80;;;13.00;99.90;;;;;;5096373;28;20093;-69
2020/12/21 12:23:44;;;;;;;4.03;1.70;;;13.00;99.90;;;;;;5096599;28;20016;-69
2020/12/21 12:26:15;;;;;;;1.70;0.57;;;13.00;99.90;;;;;;5095304;28;20306;-69
2020/12/21 12:28:41;;;;;;;1.40;0.87;;;13.10;99.90;;;;;;5095841;28;20016;-69
2020/12/21 12:31:07;;;;;;;2.63;0.60;;;13.00;99.90;;;;;;5096722;28;20422;-70
2020/12/21 12:33:32;;;;;;;0.83;0.40;;;13.00;99.90;;;;;;5079425;28;20435;-70
2020/12/21 12:35:58;;;;;;;2.90;0.63;;;13.10;99.90;;;;;;5098723;28;20048;-69
2020/12/21 12:38:24;;;;;;;1.23;0.40;;;13.10;99.90;;;;;;5078308;28;20443;-69
2020/12/21 12:40:49;;;;;;;1.37;0.50;;;13.00;99.90;;;;;;5096418;28;20035;-70
2020/12/21 12:43:15;;;;;;;1.70;0.60;;;13.00;99.90;;;;;;5096199;28;20024;-70
2020/12/21 12:45:40;;;;;;;3.83;0.60;;;13.10;99.90;;;;;;5098135;28;20028;-70
2020/12/21 12:48:06;;;;;;;1.87;0.53;;;13.10;99.90;;;;;;5078782;28;20048;-69
2020/12/21 12:50:32;;;;;;;2.30;0.87;;;13.00;99.90;;;;;;5094461;28;20465;-69